地図

経路データ

SID SEASON NUMBER BASIN SUBBASIN NAME ISO_TIME NATURE LAT LON WMO_WIND WMO_PRES WMO_AGENCY TRACK_TYPE DIST2LAND LANDFALL IFLAG USA_AGENCY USA_ATCF_ID USA_LAT USA_LON USA_RECORD USA_STATUS USA_WIND USA_PRES USA_SSHS USA_R34_NE USA_R34_SE USA_R34_SW USA_R34_NW USA_R50_NE USA_R50_SE USA_R50_SW USA_R50_NW USA_R64_NE USA_R64_SE USA_R64_SW USA_R64_NW USA_POCI USA_ROCI USA_RMW USA_EYE TOKYO_LAT TOKYO_LON TOKYO_GRADE TOKYO_WIND TOKYO_PRES TOKYO_R50_DIR TOKYO_R50_LONG TOKYO_R50_SHORT TOKYO_R30_DIR TOKYO_R30_LONG TOKYO_R30_SHORT TOKYO_LAND CMA_LAT CMA_LON CMA_CAT CMA_WIND CMA_PRES HKO_LAT HKO_LON HKO_CAT HKO_WIND HKO_PRES NEWDELHI_LAT NEWDELHI_LON NEWDELHI_GRADE NEWDELHI_WIND NEWDELHI_PRES NEWDELHI_CI NEWDELHI_DP NEWDELHI_POCI REUNION_LAT REUNION_LON REUNION_TYPE REUNION_WIND REUNION_PRES REUNION_TNUM REUNION_CI REUNION_RMW REUNION_R34_NE REUNION_R34_SE REUNION_R34_SW REUNION_R34_NW REUNION_R50_NE REUNION_R50_SE REUNION_R50_SW REUNION_R50_NW REUNION_R64_NE REUNION_R64_SE REUNION_R64_SW REUNION_R64_NW BOM_LAT BOM_LON BOM_TYPE BOM_WIND BOM_PRES BOM_TNUM BOM_CI BOM_RMW BOM_R34_NE BOM_R34_SE BOM_R34_SW BOM_R34_NW BOM_R50_NE BOM_R50_SE BOM_R50_SW BOM_R50_NW BOM_R64_NE BOM_R64_SE BOM_R64_SW BOM_R64_NW BOM_ROCI BOM_POCI BOM_EYE BOM_POS_METHOD BOM_PRES_METHOD NADI_LAT NADI_LON NADI_CAT NADI_WIND NADI_PRES WELLINGTON_LAT WELLINGTON_LON WELLINGTON_WIND WELLINGTON_PRES DS824_LAT DS824_LON DS824_STAGE DS824_WIND DS824_PRES TD9636_LAT TD9636_LON TD9636_STAGE TD9636_WIND TD9636_PRES TD9635_LAT TD9635_LON TD9635_WIND TD9635_PRES TD9635_ROCI NEUMANN_LAT NEUMANN_LON NEUMANN_CLASS NEUMANN_WIND NEUMANN_PRES MLC_LAT MLC_LON MLC_CLASS MLC_WIND MLC_PRES USA_GUST BOM_GUST BOM_GUST_PER REUNION_GUST REUNION_GUST_PER USA_SEAHGT USA_SEARAD_NE USA_SEARAD_SE USA_SEARAD_SW USA_SEARAD_NW STORM_SPEED STORM_DIR
1878101S10067 1878 6 SI MM NOT_NAMED 1878-04-11 06:00:00 NR -9.90000 66.5000 reunion main 1481 1457 _____O________ -1 -9.90000 66.5000 99 9.90000 4 205
1878101S10067 1878 6 SI MM NOT_NAMED 1878-04-11 09:00:00 NR -10.0606 66.4149 main 1457 1441 _____P________ -1 -10.0606 66.4149 99 4 207
1878101S10067 1878 6 SI MM NOT_NAMED 1878-04-11 12:00:00 NR -10.2332 66.3283 main 1441 1417 _____P________ -1 -10.2332 66.3283 99 4 205
1878101S10067 1878 6 SI MM NOT_NAMED 1878-04-11 15:00:00 NR -10.4299 66.2390 main 1417 1399 _____P________ -1 -10.4299 66.2390 99 5 203
1878101S10067 1878 6 SI MM NOT_NAMED 1878-04-11 18:00:00 NR -10.6629 66.1455 main 1384 1367 _____P________ -1 -10.6629 66.1455 99 6 200
1878101S10067 1878 6 SI MM NOT_NAMED 1878-04-11 21:00:00 NR -10.9442 66.0463 main 1360 1318 _____P________ -1 -10.9442 66.0463 99 7 198
1878101S10067 1878 6 SI MM NOT_NAMED 1878-04-12 00:00:00 NR -11.2861 65.9400 main 1318 1277 _____P________ -1 -11.2861 65.9400 99 8 196
1878101S10067 1878 6 SI MM NOT_NAMED 1878-04-12 03:00:00 NR -11.7006 65.8251 main 1277 1229 _____P________ -1 -11.7006 65.8251 99 10 194
1878101S10067 1878 6 SI MM NOT_NAMED 1878-04-12 06:00:00 NR -12.2000 65.7000 reunion main 1229 1173 _____O________ -1 -12.2000 65.7000 99 9.90000 11 193
1878101S10067 1878 6 SI MM NOT_NAMED 1878-04-12 09:00:00 NR -12.7916 65.5648 main 1173 1110 _____P________ -1 -12.7916 65.5648 99 13 192
1878101S10067 1878 6 SI MM NOT_NAMED 1878-04-12 12:00:00 NR -13.4631 65.4260 main 1103 1042 _____P________ -1 -13.4631 65.4260 99 14 191
1878101S10067 1878 6 SI MM NOT_NAMED 1878-04-12 15:00:00 NR -14.1971 65.2921 main 1042 985 _____P________ -1 -14.1971 65.2921 99 15 189
1878101S10067 1878 6 SI MM NOT_NAMED 1878-04-12 18:00:00 NR -14.9763 65.1715 main 978 924 _____P________ -1 -14.9763 65.1715 99 16 188
1878101S10067 1878 6 SI MM NOT_NAMED 1878-04-12 21:00:00 NR -15.7834 65.0731 main 918 864 _____P________ -1 -15.7834 65.0731 99 16 186
1878101S10067 1878 6 SI MM NOT_NAMED 1878-04-13 00:00:00 NR -16.6012 65.0056 main 864 824 _____P________ -1 -16.6012 65.0056 99 16 183
1878101S10067 1878 6 SI MM NOT_NAMED 1878-04-13 03:00:00 NR -17.4124 64.9781 main 824 791 _____P________ -1 -17.4124 64.9781 99 16 180
1878101S10067 1878 6 SI MM NOT_NAMED 1878-04-13 06:00:00 NR -18.2000 65.0000 reunion main 791 770 _____O________ -1 -18.2000 65.0000 99 9.90000 15 178
1878101S10067 1878 6 SI MM NOT_NAMED 1878-04-13 09:00:00 NR -18.9009 65.0398 main 770 766 _____P________ -1 -18.9009 65.0398 99 14 175
1878101S10067 1878 6 SI MM NOT_NAMED 1878-04-13 12:00:00 NR -19.5880 65.1233 main 766 765 _____P________ -1 -19.5880 65.1233 99 14 172
1878101S10067 1878 6 SI MM NOT_NAMED 1878-04-13 15:00:00 NR -20.2627 65.2532 main 782 781 _____P________ -1 -20.2627 65.2532 99 14 168
1878101S10067 1878 6 SI MM NOT_NAMED 1878-04-13 18:00:00 NR -20.9265 65.4322 main 793 793 _____P________ -1 -20.9265 65.4322 99 14 164
1878101S10067 1878 6 SI MM NOT_NAMED 1878-04-13 21:00:00 NR -21.5808 65.6634 main 832 832 _____P________ -1 -21.5808 65.6634 99 14 160
1878101S10067 1878 6 SI MM NOT_NAMED 1878-04-14 00:00:00 NR -22.2270 65.9496 main 865 865 _____P________ -1 -22.2270 65.9496 99 14 156
1878101S10067 1878 6 SI MM NOT_NAMED 1878-04-14 03:00:00 NR -22.8663 66.2941 main 925 925 _____P________ -1 -22.8663 66.2941 99 15 152
1878101S10067 1878 6 SI MM NOT_NAMED 1878-04-14 06:00:00 NR -23.5000 66.7000 reunion main 984 984 _____O________ -1 -23.5000 66.7000 99 9.90000 16 148
1878101S10067 1878 6 SI MM NOT_NAMED 1878-04-14 09:00:00 NR -24.2040 67.2123 main 1060 1060 _____P________ -1 -24.2040 67.2123 99 17 144
1878101S10067 1878 6 SI MM NOT_NAMED 1878-04-14 12:00:00 NR -24.9080 67.8016 main 1145 1145 _____P________ -1 -24.9080 67.8016 99 18 141
1878101S10067 1878 6 SI MM NOT_NAMED 1878-04-14 15:00:00 NR -25.5987 68.4466 main 1233 1233 _____P________ -1 -25.5987 68.4466 99 18 139
1878101S10067 1878 6 SI MM NOT_NAMED 1878-04-14 18:00:00 NR -26.2628 69.1252 main 1330 1330 _____P________ -1 -26.2628 69.1252 99 18 136
1878101S10067 1878 6 SI MM NOT_NAMED 1878-04-14 21:00:00 NR -26.8873 69.8143 main 1422 1422 _____P________ -1 -26.8873 69.8143 99 17 135
1878101S10067 1878 6 SI MM NOT_NAMED 1878-04-15 00:00:00 NR -27.4596 70.4897 main 1515 1515 _____P________ -1 -27.4596 70.4897 99 16 133
1878101S10067 1878 6 SI MM NOT_NAMED 1878-04-15 03:00:00 NR -27.9677 71.1268 main 1593 1593 _____P________ -1 -27.9677 71.1268 99 14 131
1878101S10067 1878 6 SI MM NOT_NAMED 1878-04-15 06:00:00 NR -28.4000 71.7000 reunion main 1666 1666 _____O________ -1 -28.4000 71.7000 99 9.90000 12 130
1878101S10067 1878 6 SI MM NOT_NAMED 1878-04-15 09:00:00 NR -28.7491 72.1895 main 1725 1725 _____P________ -1 -28.7491 72.1895 99 10 128
1878101S10067 1878 6 SI MM NOT_NAMED 1878-04-15 12:00:00 NR -29.0229 72.5993 main 1775 1775 _____P________ -1 -29.0229 72.5993 99 8 126
1878101S10067 1878 6 SI MM NOT_NAMED 1878-04-15 15:00:00 NR -29.2326 72.9399 main 1812 1812 _____P________ -1 -29.2326 72.9399 99 7 124
1878101S10067 1878 6 SI MM NOT_NAMED 1878-04-15 18:00:00 NR -29.3892 73.2223 main 1848 1848 _____P________ -1 -29.3892 73.2223 99 5 121
1878101S10067 1878 6 SI MM NOT_NAMED 1878-04-15 21:00:00 NR -29.5037 73.4579 main 1879 1879 _____P________ -1 -29.5037 73.4579 99 4 117
1878101S10067 1878 6 SI MM NOT_NAMED 1878-04-16 00:00:00 NR -29.5867 73.6583 main 1901 1901 _____P________ -1 -29.5867 73.6583 99 4 114
1878101S10067 1878 6 SI MM NOT_NAMED 1878-04-16 03:00:00 NR -29.6486 73.8350 main 1909 1909 _____P________ -1 -29.6486 73.8350 99 3 111
1878101S10067 1878 6 SI MM NOT_NAMED 1878-04-16 06:00:00 NR -29.7000 74.0000 reunion main 1932 _____O________ -1 -29.7000 74.0000 99 9.90000 3 110

IBTrACS Databaseについて

本データベースは、米国NOAAが公開する1842年以降の世界の熱帯低気圧のベストトラックデータアーカイブInternational Best Track Archive for Climate Stewardship (IBTrACS)を、ウェブで閲覧しやすい形式に変換したものです。

最終更新日:2021-12-01